createdAt,value
2022-08-07T00:02:37.372Z,1.98
2022-08-07T00:04:58.577Z,2.00
2022-08-07T00:07:40.396Z,1.98
2022-08-07T00:10:26.091Z,2.13
2022-08-07T00:12:57.801Z,1.90
2022-08-07T00:15:38.096Z,2.10
2022-08-07T00:18:19.706Z,2.10
2022-08-07T00:21:08.287Z,2.25
2022-08-07T00:23:51.854Z,2.63
2022-08-07T00:26:49.388Z,2.28
2022-08-07T00:29:06.624Z,2.05
2022-08-07T00:31:37.846Z,2.15
2022-08-07T00:34:08.902Z,2.30
2022-08-07T00:36:38.587Z,2.78
2022-08-07T00:39:12.844Z,2.50
2022-08-07T00:42:02.601Z,2.30
2022-08-07T00:44:33.624Z,2.85
2022-08-07T00:47:16.165Z,2.60
2022-08-07T00:52:42.024Z,2.63
2022-08-07T00:55:17.404Z,2.65
2022-08-07T00:58:04.622Z,2.63
2022-08-07T01:03:56.206Z,2.72
2022-08-07T01:06:26.904Z,2.80
2022-08-07T01:08:55.693Z,3.00
2022-08-07T01:12:26.519Z,2.78
2022-08-07T01:14:16.584Z,2.88
2022-08-07T01:16:47.368Z,2.60
2022-08-07T01:19:19.660Z,3.05
2022-08-07T01:21:53.361Z,2.90
2022-08-07T01:24:28.716Z,2.90
2022-08-07T01:27:00.969Z,3.08
2022-08-07T01:29:33.683Z,3.50
2022-08-07T01:34:47.144Z,3.08
2022-08-07T01:37:17.304Z,3.30
2022-08-07T01:39:48.394Z,2.95
2022-08-07T01:42:37.806Z,3.38
2022-08-07T01:45:15.721Z,2.85
2022-08-07T01:48:19.666Z,3.08
2022-08-07T01:50:40.278Z,3.75
2022-08-07T01:56:07.254Z,3.08
2022-08-07T01:58:46.468Z,3.50
2022-08-07T02:01:59.247Z,3.15
2022-08-07T02:04:17.575Z,3.35
2022-08-07T02:06:57.333Z,3.90
2022-08-07T02:09:51.646Z,3.50
2022-08-07T02:12:29.077Z,3.90
2022-08-07T02:15:00.667Z,3.40
2022-08-07T02:17:49.566Z,4.13
2022-08-07T02:20:23.803Z,3.53
2022-08-07T02:22:59.697Z,3.97
2022-08-07T02:26:10.547Z,3.90
2022-08-07T02:28:24.428Z,3.97
2022-08-07T02:30:56.188Z,3.92
2022-08-07T02:33:42.259Z,3.80
2022-08-07T02:36:28.290Z,4.13
2022-08-07T02:39:16.058Z,3.40
2022-08-07T02:41:47.337Z,4.03
2022-08-07T02:44:21.108Z,3.90
2022-08-07T02:46:52.564Z,4.00
2022-08-07T02:49:56.390Z,3.53
2022-08-07T02:52:17.209Z,4.03
2022-08-07T02:54:50.611Z,3.78
2022-08-07T02:57:23.759Z,3.65
2022-08-07T03:00:11.013Z,3.80
2022-08-07T03:03:49.642Z,3.70
2022-08-07T03:06:33.082Z,3.72
2022-08-07T03:09:07.645Z,3.75
2022-08-07T03:11:39.253Z,4.00
2022-08-07T03:14:28.250Z,4.15
2022-08-07T03:16:57.659Z,3.95
2022-08-07T03:19:28.897Z,3.88
2022-08-07T03:21:59.266Z,4.05
2022-08-07T03:24:28.046Z,4.45
2022-08-07T03:27:01.902Z,4.15
2022-08-07T03:29:58.867Z,3.70
2022-08-07T03:32:40.250Z,4.05
2022-08-07T03:35:26.253Z,4.18
2022-08-07T03:38:01.864Z,4.05
2022-08-07T03:40:36.458Z,4.30
2022-08-07T03:43:10.113Z,4.35
2022-08-07T03:45:47.884Z,4.00
2022-08-07T03:48:20.207Z,4.25
2022-08-07T03:50:55.643Z,3.75
2022-08-07T03:53:50.056Z,4.65
2022-08-07T03:56:18.517Z,4.10
2022-08-07T03:59:08.706Z,4.57
2022-08-07T04:01:46.050Z,4.57
2022-08-07T04:04:17.889Z,3.83
2022-08-07T04:06:51.587Z,4.57
2022-08-07T04:09:23.305Z,4.53
2022-08-07T04:12:24.747Z,4.07
2022-08-07T04:14:47.808Z,4.50
2022-08-07T04:17:20.830Z,4.30
2022-08-07T04:19:52.397Z,4.53
2022-08-07T04:22:29.191Z,4.75
2022-08-07T04:25:02.081Z,5.03
2022-08-07T04:27:35.406Z,5.40
2022-08-07T04:30:11.903Z,5.18
2022-08-07T04:32:58.242Z,5.03
2022-08-07T04:35:35.073Z,5.78
2022-08-07T04:38:11.523Z,5.72
2022-08-07T04:40:52.979Z,5.68
2022-08-07T04:44:10.687Z,4.75
2022-08-07T04:47:03.873Z,5.03
2022-08-07T04:49:57.725Z,5.45
2022-08-07T04:52:53.469Z,5.67
2022-08-07T04:58:12.540Z,5.57
2022-08-07T04:58:54.603Z,5.25
2022-08-07T05:01:29.914Z,5.55
2022-08-07T05:04:08.710Z,6.07
2022-08-07T05:06:56.494Z,6.15
2022-08-07T05:09:48.569Z,6.65
2022-08-07T05:12:30.490Z,6.78
2022-08-07T05:15:23.128Z,6.55
2022-08-07T05:18:06.123Z,7.13
2022-08-07T05:20:46.188Z,7.10
2022-08-07T05:23:23.230Z,7.28
2022-08-07T05:26:13.786Z,7.43
2022-08-07T05:28:50.100Z,8.48
2022-08-07T05:31:23.344Z,7.75
2022-08-07T05:34:04.556Z,7.70
2022-08-07T05:36:39.129Z,8.35
2022-08-07T05:40:14.236Z,6.32
2022-08-07T05:42:07.537Z,7.40
2022-08-07T05:44:41.533Z,6.95
2022-08-07T05:47:20.002Z,7.78
2022-08-07T05:49:51.494Z,7.45
2022-08-07T05:52:20.677Z,6.40
2022-08-07T05:55:07.286Z,6.82
2022-08-07T05:57:42.804Z,6.60
2022-08-07T06:00:16.628Z,6.72
2022-08-07T06:02:56.459Z,5.88
2022-08-07T06:05:29.802Z,6.70
2022-08-07T06:08:14.612Z,6.00
2022-08-07T06:10:52.037Z,5.70
2022-08-07T06:14:10.689Z,5.38
2022-08-07T06:16:13.506Z,5.55
2022-08-07T06:18:43.303Z,5.63
2022-08-07T06:22:15.983Z,5.07
2022-08-07T06:24:45.354Z,5.03
2022-08-07T06:26:55.920Z,5.53
2022-08-07T06:29:29.579Z,4.65
2022-08-07T06:31:57.092Z,4.75
2022-08-07T06:34:25.747Z,4.47
2022-08-07T06:36:59.667Z,4.18
2022-08-07T06:40:17.844Z,4.38
2022-08-07T06:42:32.942Z,4.07
2022-08-07T06:45:18.059Z,4.07
2022-08-07T06:47:58.471Z,4.18
2022-08-07T06:50:36.057Z,3.70
2022-08-07T06:53:07.342Z,3.65
2022-08-07T06:56:00.841Z,3.40
2022-08-07T06:58:32.127Z,3.35
2022-08-07T07:01:12.452Z,3.65
2022-08-07T07:03:48.241Z,3.72
2022-08-07T07:06:23.746Z,3.63
2022-08-07T07:08:51.042Z,3.40
2022-08-07T07:12:08.195Z,3.80
2022-08-07T07:14:08.571Z,3.40
2022-08-07T07:16:49.637Z,4.40
2022-08-07T07:19:56.579Z,4.25
2022-08-07T07:22:36.056Z,3.92
2022-08-07T07:26:31.248Z,3.70
2022-08-07T07:28:03.366Z,3.70
2022-08-07T07:30:40.063Z,4.20
2022-08-07T07:35:51.868Z,3.90
2022-08-07T07:38:29.484Z,4.13
2022-08-07T07:41:02.364Z,3.72
2022-08-07T07:44:14.019Z,3.70
2022-08-07T07:46:53.334Z,3.58
2022-08-07T07:50:31.356Z,3.72
2022-08-07T07:51:59.615Z,3.75
2022-08-07T07:54:27.541Z,4.18
2022-08-07T07:56:57.410Z,3.95
2022-08-07T07:59:52.080Z,3.88
2022-08-07T08:02:33.576Z,3.83
2022-08-07T08:05:05.502Z,3.80
2022-08-07T08:07:59.942Z,3.80
2022-08-07T08:10:35.753Z,3.95
2022-08-07T08:13:07.350Z,3.70
2022-08-07T08:15:58.117Z,3.55
2022-08-07T08:18:28.427Z,3.60
2022-08-07T08:20:58.548Z,4.28
2022-08-07T08:23:46.918Z,4.20
2022-08-07T08:26:57.058Z,3.83
2022-08-07T08:29:36.698Z,3.47
2022-08-07T08:32:38.243Z,4.22
2022-08-07T08:35:10.158Z,3.42
2022-08-07T08:38:00.606Z,3.92
2022-08-07T08:40:36.032Z,3.90
2022-08-07T08:43:05.783Z,4.00
2022-08-07T08:45:59.607Z,4.13
2022-08-07T08:48:46.768Z,4.07
2022-08-07T08:52:01.099Z,3.60
2022-08-07T08:54:32.951Z,3.70
2022-08-07T08:57:06.805Z,3.90
2022-08-07T08:59:51.193Z,3.65
2022-08-07T09:02:57.776Z,3.53
2022-08-07T09:05:46.752Z,4.15
2022-08-07T09:08:24.332Z,4.20
2022-08-07T09:11:14.001Z,3.60
2022-08-07T09:14:14.561Z,3.92
2022-08-07T09:16:59.905Z,3.88
2022-08-07T09:19:52.811Z,4.30
2022-08-07T09:24:30.370Z,4.00
2022-08-07T09:26:21.701Z,3.95
2022-08-07T09:30:05.999Z,3.60
2022-08-07T09:32:17.058Z,3.85
2022-08-07T09:36:02.953Z,3.67
2022-08-07T09:38:12.062Z,3.30
2022-08-07T09:41:15.781Z,3.33
2022-08-07T09:44:20.021Z,3.60
2022-08-07T09:48:00.067Z,3.42
2022-08-07T09:50:26.589Z,3.55
2022-08-07T09:53:02.887Z,3.50
2022-08-07T09:56:07.726Z,3.15
2022-08-07T09:58:57.815Z,2.90
2022-08-07T10:01:52.325Z,3.13
2022-08-07T10:04:28.244Z,3.30
2022-08-07T10:07:52.364Z,2.55
2022-08-07T10:11:16.974Z,2.80
2022-08-07T10:14:02.337Z,2.75
2022-08-07T10:17:04.195Z,3.28
2022-08-07T10:20:22.152Z,3.15
2022-08-07T10:24:04.844Z,2.70
2022-08-07T10:26:27.329Z,3.00
2022-08-07T10:29:06.906Z,2.90
2022-08-07T10:31:55.719Z,2.47
2022-08-07T10:34:37.399Z,3.00
2022-08-07T10:37:48.122Z,2.55
2022-08-07T10:40:40.079Z,3.35
2022-08-07T10:43:35.627Z,2.75
2022-08-07T10:46:13.474Z,2.78
2022-08-07T10:49:10.648Z,2.70
2022-08-07T10:52:12.946Z,2.20
2022-08-07T10:54:55.239Z,2.50
2022-08-07T10:57:51.573Z,2.65
2022-08-07T11:00:39.762Z,2.80
2022-08-07T11:03:37.916Z,2.75
2022-08-07T11:06:28.769Z,2.90
2022-08-07T11:09:12.304Z,2.60
2022-08-07T11:12:31.588Z,2.53
2022-08-07T11:15:14.434Z,2.47
2022-08-07T11:17:57.117Z,2.60
2022-08-07T11:20:52.754Z,2.70
2022-08-07T11:23:36.402Z,2.30
2022-08-07T11:26:24.697Z,2.17
2022-08-07T11:29:05.616Z,2.50
2022-08-07T11:31:53.630Z,2.20
2022-08-07T11:35:01.290Z,2.28
2022-08-07T11:37:58.164Z,2.00
2022-08-07T11:40:49.831Z,2.33
2022-08-07T11:43:41.745Z,2.42
2022-08-07T11:46:32.659Z,2.35
2022-08-07T11:49:51.538Z,2.40
2022-08-07T11:52:29.122Z,2.63
2022-08-07T11:56:25.101Z,2.30
2022-08-07T11:58:33.351Z,2.28
2022-08-07T12:01:08.372Z,2.00
2022-08-07T12:03:51.738Z,2.22
2022-08-07T12:06:39.959Z,2.00
2022-08-07T12:12:10.950Z,2.13
2022-08-07T12:14:52.691Z,1.98
2022-08-07T12:17:58.565Z,2.03
2022-08-07T12:20:41.640Z,2.13
2022-08-07T12:23:14.674Z,2.25
2022-08-07T12:26:03.467Z,2.10
2022-08-07T12:29:00.611Z,2.40
2022-08-07T12:31:53.315Z,1.90
2022-08-07T12:34:26.695Z,2.13
2022-08-07T12:36:56.516Z,2.20
2022-08-07T12:39:42.479Z,1.77
2022-08-07T12:42:13.115Z,2.13
2022-08-07T12:44:46.384Z,1.90
2022-08-07T12:47:30.996Z,2.10
2022-08-07T12:50:48.699Z,1.95
2022-08-07T12:54:02.675Z,1.85
2022-08-07T12:56:34.862Z,2.05
2022-08-07T12:59:08.449Z,1.88
2022-08-07T13:02:03.287Z,1.80
2022-08-07T13:05:01.659Z,1.50
2022-08-07T13:08:12.581Z,1.90
2022-08-07T13:10:54.682Z,2.03
2022-08-07T13:13:46.996Z,1.80
2022-08-07T13:16:17.425Z,1.92
2022-08-07T13:19:45.929Z,1.83
2022-08-07T13:22:27.521Z,1.75
2022-08-07T13:25:02.856Z,1.67
2022-08-07T13:28:12.658Z,1.35
2022-08-07T13:30:41.186Z,1.50
2022-08-07T13:34:33.539Z,1.70
2022-08-07T13:36:43.429Z,1.52
2022-08-07T13:39:28.459Z,1.85
2022-08-07T13:42:21.666Z,1.60
2022-08-07T13:45:20.772Z,1.70
2022-08-07T13:48:06.605Z,1.90
2022-08-07T13:50:45.138Z,1.90
2022-08-07T13:53:23.915Z,1.73
2022-08-07T13:55:54.875Z,2.00
2022-08-07T13:58:56.093Z,1.98
2022-08-07T14:01:26.322Z,1.50
2022-08-07T14:04:07.079Z,1.60
2022-08-07T14:06:39.166Z,2.00
2022-08-07T14:10:03.043Z,1.80
2022-08-07T14:12:08.058Z,1.75
2022-08-07T14:14:44.033Z,1.67
2022-08-07T14:18:13.598Z,1.63
2022-08-07T14:22:40.944Z,1.48
2022-08-07T14:23:58.724Z,1.55
2022-08-07T14:29:05.986Z,1.70
2022-08-07T14:31:42.265Z,2.00
2022-08-07T14:34:19.933Z,1.60
2022-08-07T14:36:56.197Z,1.90
2022-08-07T14:40:18.044Z,1.65
2022-08-07T14:42:20.048Z,1.80
2022-08-07T14:44:53.606Z,1.70
2022-08-07T14:47:23.688Z,1.88
2022-08-07T14:52:42.951Z,1.70
2022-08-07T14:55:17.769Z,1.90
2022-08-07T15:00:43.255Z,1.60
2022-08-07T15:03:18.821Z,1.55
2022-08-07T15:05:54.673Z,1.77
2022-08-07T15:08:34.479Z,1.90
2022-08-07T15:11:15.097Z,2.40
2022-08-07T15:13:58.446Z,2.20
2022-08-07T15:16:54.767Z,2.35
2022-08-07T15:22:29.111Z,2.50
2022-08-07T15:25:13.286Z,2.10
2022-08-07T15:31:04.485Z,2.25
2022-08-07T15:33:33.870Z,2.10
2022-08-07T15:36:06.157Z,2.53
2022-08-07T15:38:59.297Z,2.55
2022-08-07T15:42:43.485Z,2.13
2022-08-07T15:44:18.292Z,2.22
2022-08-07T15:46:55.267Z,2.05
2022-08-07T15:50:04.159Z,2.20
2022-08-07T15:55:02.775Z,2.17
2022-08-07T15:57:48.057Z,2.30
2022-08-07T16:00:31.847Z,2.67
2022-08-07T16:03:21.624Z,2.17
2022-08-07T16:06:01.842Z,2.28
2022-08-07T16:08:38.564Z,2.15
2022-08-07T16:11:26.616Z,2.30
2022-08-07T16:14:12.007Z,2.13
2022-08-07T16:16:57.139Z,2.40
2022-08-07T16:19:59.552Z,2.53
2022-08-07T16:22:37.885Z,2.08
2022-08-07T16:25:52.752Z,2.28
2022-08-07T16:30:07.140Z,2.20
2022-08-07T16:31:57.337Z,2.20
2022-08-07T16:34:42.120Z,2.10
2022-08-07T16:38:06.431Z,1.90
2022-08-07T16:40:32.089Z,2.30
2022-08-07T16:43:13.736Z,2.20
2022-08-07T16:46:34.669Z,2.27
2022-08-07T16:50:29.403Z,2.72
2022-08-07T16:52:55.691Z,2.67
2022-08-07T16:55:43.657Z,2.42
2022-08-07T16:59:10.060Z,2.40
2022-08-07T17:02:11.367Z,2.63
2022-08-07T17:06:28.828Z,2.42
2022-08-07T17:08:06.127Z,2.33
2022-08-07T17:10:54.683Z,2.72
2022-08-07T17:13:41.853Z,2.70
2022-08-07T17:18:59.528Z,3.38
2022-08-07T17:21:51.675Z,2.90
2022-08-07T17:24:48.879Z,3.13
2022-08-07T17:27:50.685Z,2.80
2022-08-07T17:30:20.477Z,2.80
2022-08-07T17:34:10.256Z,2.75
2022-08-07T17:36:20.523Z,3.10
2022-08-07T17:39:10.579Z,3.10
2022-08-07T17:42:03.551Z,2.80
2022-08-07T17:44:45.607Z,2.90
2022-08-07T17:47:39.809Z,2.75
2022-08-07T17:50:16.433Z,3.35
2022-08-07T17:52:55.342Z,2.70
2022-08-07T17:55:55.972Z,2.97
2022-08-07T17:58:54.739Z,3.03
2022-08-07T18:01:40.670Z,3.17
2022-08-07T18:04:34.791Z,3.03
2022-08-07T18:07:20.044Z,3.10
2022-08-07T18:10:06.349Z,3.28
2022-08-07T18:12:54.827Z,2.70
2022-08-07T18:15:35.685Z,2.72
2022-08-07T18:18:44.950Z,3.03
2022-08-07T18:21:28.753Z,3.28
2022-08-07T18:24:07.562Z,3.17
2022-08-07T18:26:51.839Z,3.40
2022-08-07T18:30:04.383Z,2.67
2022-08-07T18:32:48.583Z,3.05
2022-08-07T18:35:51.538Z,2.80
2022-08-07T18:38:54.780Z,3.25
2022-08-07T18:41:59.030Z,2.97
2022-08-07T18:45:43.275Z,3.00
2022-08-07T18:48:08.029Z,2.95
2022-08-07T18:50:55.669Z,3.10
2022-08-07T18:53:43.558Z,3.25
2022-08-07T18:56:39.614Z,3.08
2022-08-07T18:59:59.098Z,3.03
2022-08-07T19:02:43.828Z,3.42
2022-08-07T19:05:20.105Z,2.75
2022-08-07T19:07:59.611Z,3.05
2022-08-07T19:10:55.376Z,3.57
2022-08-07T19:13:35.562Z,3.33
2022-08-07T19:17:04.638Z,3.28
2022-08-07T19:19:13.224Z,3.42
2022-08-07T19:21:56.842Z,3.78
2022-08-07T19:24:44.543Z,3.33
2022-08-07T19:28:57.381Z,3.42
2022-08-07T19:31:06.291Z,3.50
2022-08-07T19:33:13.379Z,3.58
2022-08-07T19:35:51.765Z,3.63
2022-08-07T19:38:22.698Z,3.88
2022-08-07T19:40:51.882Z,3.42
2022-08-07T19:43:49.135Z,3.47
2022-08-07T19:46:16.095Z,3.97
2022-08-07T19:48:53.718Z,3.50
2022-08-07T19:51:50.608Z,3.83
2022-08-07T19:54:33.749Z,3.47
2022-08-07T19:58:02.926Z,3.60
2022-08-07T19:59:56.026Z,3.70
2022-08-07T20:02:38.921Z,3.78
2022-08-07T20:05:12.497Z,3.55
2022-08-07T20:07:48.214Z,3.85
2022-08-07T20:10:36.578Z,4.10
2022-08-07T20:13:23.301Z,3.47
2022-08-07T20:15:54.836Z,3.92
2022-08-07T20:18:31.925Z,3.50
2022-08-07T20:21:03.491Z,3.30
2022-08-07T20:23:53.878Z,3.22
2022-08-07T20:26:32.139Z,3.50
2022-08-07T20:29:10.232Z,3.83
2022-08-07T20:31:46.419Z,3.28
2022-08-07T20:34:39.935Z,3.63
2022-08-07T20:37:09.614Z,3.67
2022-08-07T20:40:04.214Z,3.60
2022-08-07T20:42:29.029Z,3.90
2022-08-07T20:44:59.592Z,3.90
2022-08-07T20:47:56.492Z,3.80
2022-08-07T20:50:20.345Z,3.80
2022-08-07T20:52:51.633Z,3.45
2022-08-07T20:55:23.626Z,3.30
2022-08-07T20:57:59.990Z,3.85
2022-08-07T21:00:46.042Z,3.60
2022-08-07T21:06:03.669Z,3.47
2022-08-07T21:09:03.523Z,3.58
2022-08-07T21:11:50.514Z,3.08
2022-08-07T21:14:32.047Z,3.85
2022-08-07T21:18:01.770Z,4.30
2022-08-07T21:20:05.186Z,3.50
2022-08-07T21:22:53.526Z,3.40
2022-08-07T21:25:56.277Z,3.85
2022-08-07T21:28:48.324Z,3.75
2022-08-07T21:31:50.153Z,3.90
2022-08-07T21:34:32.184Z,3.50
2022-08-07T21:37:08.471Z,4.03
2022-08-07T21:39:46.363Z,3.78
2022-08-07T21:42:42.417Z,3.90
2022-08-07T21:46:09.387Z,4.20
2022-08-07T21:48:27.589Z,3.70
2022-08-07T21:51:20.410Z,4.20
2022-08-07T21:53:54.832Z,4.32
2022-08-07T21:56:47.231Z,4.18
2022-08-07T22:00:04.627Z,4.10
2022-08-07T22:02:57.293Z,4.45
2022-08-07T22:05:44.346Z,4.35
2022-08-07T22:08:18.515Z,4.18
2022-08-07T22:10:51.112Z,4.93
2022-08-07T22:13:24.208Z,3.83
2022-08-07T22:16:43.091Z,4.22
2022-08-07T22:19:20.135Z,4.20
2022-08-07T22:22:21.013Z,4.80
2022-08-07T22:25:08.202Z,4.38
2022-08-07T22:28:29.735Z,4.45
2022-08-07T22:31:06.868Z,4.57
2022-08-07T22:33:56.157Z,4.25
2022-08-07T22:37:12.340Z,4.53
2022-08-07T22:40:11.204Z,4.30
2022-08-07T22:42:44.475Z,4.30
2022-08-07T22:46:21.341Z,5.30
2022-08-07T22:48:54.615Z,4.22
2022-08-07T22:51:20.242Z,4.45
2022-08-07T22:54:08.049Z,4.82
2022-08-07T22:56:36.828Z,4.45
2022-08-07T22:59:39.078Z,4.80
2022-08-07T23:02:31.695Z,4.25
2022-08-07T23:06:08.981Z,4.55
2022-08-07T23:08:51.622Z,5.00
2022-08-07T23:11:49.396Z,4.95
2022-08-07T23:14:36.211Z,4.90
2022-08-07T23:17:30.950Z,5.28
2022-08-07T23:20:52.319Z,4.95
2022-08-07T23:24:06.298Z,5.32
2022-08-07T23:26:23.445Z,5.95
2022-08-07T23:29:43.296Z,5.70
2022-08-07T23:34:20.965Z,5.40
2022-08-07T23:35:23.224Z,5.20
2022-08-07T23:38:04.851Z,5.90
2022-08-07T23:40:41.865Z,5.55
2022-08-07T23:43:44.257Z,6.45
2022-08-07T23:46:34.707Z,6.10
2022-08-07T23:49:15.902Z,5.63
2022-08-07T23:52:59.570Z,5.78
2022-08-07T23:54:59.634Z,5.57
2022-08-07T23:57:52.730Z,6.35
